sensor_id;sensor_type;location;lat;lon;timestamp;temperature;humidity
17284;DHT22;8760;52.248;20.952;2022-12-29T00:01:29;6.30;1.00
17284;DHT22;8760;52.248;20.952;2022-12-29T00:03:56;6.30;1.00
17284;DHT22;8760;52.248;20.952;2022-12-29T00:06:23;6.30;1.00
17284;DHT22;8760;52.248;20.952;2022-12-29T00:08:50;6.30;1.00
17284;DHT22;8760;52.248;20.952;2022-12-29T00:11:19;6.30;1.00
17284;DHT22;8760;52.248;20.952;2022-12-29T00:13:47;6.30;99.90
17284;DHT22;8760;52.248;20.952;2022-12-29T00:16:35;6.30;99.90
17284;DHT22;8760;52.248;20.952;2022-12-29T00:19:03;6.40;99.90
17284;DHT22;8760;52.248;20.952;2022-12-29T00:21:31;6.30;99.90
17284;DHT22;8760;52.248;20.952;2022-12-29T00:24:17;6.40;99.90
17284;DHT22;8760;52.248;20.952;2022-12-29T00:27:11;6.30;99.90
17284;DHT22;8760;52.248;20.952;2022-12-29T00:30:04;6.40;99.90
17284;DHT22;8760;52.248;20.952;2022-12-29T00:32:51;6.40;99.90
17284;DHT22;8760;52.248;20.952;2022-12-29T00:35:39;6.40;99.90
17284;DHT22;8760;52.248;20.952;2022-12-29T00:38:07;6.40;99.90
17284;DHT22;8760;52.248;20.952;2022-12-29T00:40:52;6.40;99.90
17284;DHT22;8760;52.248;20.952;2022-12-29T00:43:36;6.30;99.90
17284;DHT22;8760;52.248;20.952;2022-12-29T00:46:22;6.30;99.90
17284;DHT22;8760;52.248;20.952;2022-12-29T00:48:49;6.30;99.90
17284;DHT22;8760;52.248;20.952;2022-12-29T00:51:33;6.30;99.90
17284;DHT22;8760;52.248;20.952;2022-12-29T00:54:00;6.30;99.90
17284;DHT22;8760;52.248;20.952;2022-12-29T00:56:27;6.30;99.90
17284;DHT22;8760;52.248;20.952;2022-12-29T00:58:54;6.30;99.90
17284;DHT22;8760;52.248;20.952;2022-12-29T01:01:22;6.30;99.90
17284;DHT22;8760;52.248;20.952;2022-12-29T01:03:49;6.40;99.90
17284;DHT22;8760;52.248;20.952;2022-12-29T01:06:16;6.40;99.90
17284;DHT22;8760;52.248;20.952;2022-12-29T01:08:42;6.40;99.90
17284;DHT22;8760;52.248;20.952;2022-12-29T01:11:11;6.50;94.60
17284;DHT22;8760;52.248;20.952;2022-12-29T01:13:38;6.50;1.00
17284;DHT22;8760;52.248;20.952;2022-12-29T01:16:06;6.50;21.70
17284;DHT22;8760;52.248;20.952;2022-12-29T01:18:35;6.50;1.00
17284;DHT22;8760;52.248;20.952;2022-12-29T01:21:04;6.60;1.00
17284;DHT22;8760;52.248;20.952;2022-12-29T01:23:32;6.50;1.00
17284;DHT22;8760;52.248;20.952;2022-12-29T01:26:08;6.60;1.00
17284;DHT22;8760;52.248;20.952;2022-12-29T01:28:35;6.50;1.00
17284;DHT22;8760;52.248;20.952;2022-12-29T01:31:04;6.60;1.00
17284;DHT22;8760;52.248;20.952;2022-12-29T01:33:31;6.50;1.00
17284;DHT22;8760;52.248;20.952;2022-12-29T01:36:01;6.50;1.00
17284;DHT22;8760;52.248;20.952;2022-12-29T01:38:28;6.50;1.00
17284;DHT22;8760;52.248;20.952;2022-12-29T01:40:55;6.50;19.90
17284;DHT22;8760;52.248;20.952;2022-12-29T01:43:39;6.40;3.40
17284;DHT22;8760;52.248;20.952;2022-12-29T01:46:09;6.40;99.90
17284;DHT22;8760;52.248;20.952;2022-12-29T01:48:40;6.40;99.90
17284;DHT22;8760;52.248;20.952;2022-12-29T01:51:08;6.40;99.90
17284;DHT22;8760;52.248;20.952;2022-12-29T01:53:36;6.30;99.90
17284;DHT22;8760;52.248;20.952;2022-12-29T01:56:06;6.30;99.90
17284;DHT22;8760;52.248;20.952;2022-12-29T01:58:37;6.30;99.90
17284;DHT22;8760;52.248;20.952;2022-12-29T02:01:06;6.30;99.90
17284;DHT22;8760;52.248;20.952;2022-12-29T02:03:34;6.20;1.00
17284;DHT22;8760;52.248;20.952;2022-12-29T02:06:03;6.20;1.00
17284;DHT22;8760;52.248;20.952;2022-12-29T02:08:32;6.20;1.00
17284;DHT22;8760;52.248;20.952;2022-12-29T02:11:00;6.20;1.00
17284;DHT22;8760;52.248;20.952;2022-12-29T02:13:28;6.20;59.70
17284;DHT22;8760;52.248;20.952;2022-12-29T02:16:00;6.20;99.90
17284;DHT22;8760;52.248;20.952;2022-12-29T02:18:37;6.10;1.00
17284;DHT22;8760;52.248;20.952;2022-12-29T02:21:36;6.10;99.90
17284;DHT22;8760;52.248;20.952;2022-12-29T02:27:40;6.00;1.00
17284;DHT22;8760;52.248;20.952;2022-12-29T02:33:20;6.00;1.00
17284;DHT22;8760;52.248;20.952;2022-12-29T02:35:54;6.00;1.00
17284;DHT22;8760;52.248;20.952;2022-12-29T02:38:33;6.00;1.00
17284;DHT22;8760;52.248;20.952;2022-12-29T02:41:07;6.00;99.90
17284;DHT22;8760;52.248;20.952;2022-12-29T02:43:39;5.90;1.00
17284;DHT22;8760;52.248;20.952;2022-12-29T02:46:12;5.90;1.00
17284;DHT22;8760;52.248;20.952;2022-12-29T02:48:46;5.90;1.00
17284;DHT22;8760;52.248;20.952;2022-12-29T02:51:20;5.90;99.90
17284;DHT22;8760;52.248;20.952;2022-12-29T02:53:48;5.80;1.00
17284;DHT22;8760;52.248;20.952;2022-12-29T02:56:33;5.80;1.00
17284;DHT22;8760;52.248;20.952;2022-12-29T02:59:00;5.80;1.00
17284;DHT22;8760;52.248;20.952;2022-12-29T03:01:40;5.70;99.90
17284;DHT22;8760;52.248;20.952;2022-12-29T03:04:38;5.70;99.90
17284;DHT22;8760;52.248;20.952;2022-12-29T03:07:14;5.60;1.00
17284;DHT22;8760;52.248;20.952;2022-12-29T03:09:49;5.60;1.00
17284;DHT22;8760;52.248;20.952;2022-12-29T03:12:26;5.60;1.00
17284;DHT22;8760;52.248;20.952;2022-12-29T03:15:15;5.50;1.00
17284;DHT22;8760;52.248;20.952;2022-12-29T03:18:06;5.50;1.00
17284;DHT22;8760;52.248;20.952;2022-12-29T03:20:41;5.50;1.00
17284;DHT22;8760;52.248;20.952;2022-12-29T03:23:10;5.40;1.00
17284;DHT22;8760;52.248;20.952;2022-12-29T03:25:40;5.40;1.00
17284;DHT22;8760;52.248;20.952;2022-12-29T03:28:12;5.40;1.00
17284;DHT22;8760;52.248;20.952;2022-12-29T03:30:41;5.40;1.00
17284;DHT22;8760;52.248;20.952;2022-12-29T03:33:11;5.20;1.00
17284;DHT22;8760;52.248;20.952;2022-12-29T03:35:42;5.20;1.00
17284;DHT22;8760;52.248;20.952;2022-12-29T03:38:13;5.10;1.00
17284;DHT22;8760;52.248;20.952;2022-12-29T03:40:43;5.10;1.00
17284;DHT22;8760;52.248;20.952;2022-12-29T03:43:12;5.00;1.00
17284;DHT22;8760;52.248;20.952;2022-12-29T03:45:39;5.00;1.00
17284;DHT22;8760;52.248;20.952;2022-12-29T03:48:06;4.90;1.00
17284;DHT22;8760;52.248;20.952;2022-12-29T03:50:33;4.90;1.00
17284;DHT22;8760;52.248;20.952;2022-12-29T03:53:01;4.90;1.00
17284;DHT22;8760;52.248;20.952;2022-12-29T03:55:28;4.90;1.00
17284;DHT22;8760;52.248;20.952;2022-12-29T03:57:55;4.90;1.00
17284;DHT22;8760;52.248;20.952;2022-12-29T04:00:21;4.80;1.00
17284;DHT22;8760;52.248;20.952;2022-12-29T04:02:48;4.90;1.00
17284;DHT22;8760;52.248;20.952;2022-12-29T04:05:15;4.80;1.00
17284;DHT22;8760;52.248;20.952;2022-12-29T04:07:42;4.90;1.00
17284;DHT22;8760;52.248;20.952;2022-12-29T04:10:10;4.80;1.00
17284;DHT22;8760;52.248;20.952;2022-12-29T04:12:37;4.80;1.00
17284;DHT22;8760;52.248;20.952;2022-12-29T04:15:05;4.80;1.00
17284;DHT22;8760;52.248;20.952;2022-12-29T04:17:32;4.80;1.00
17284;DHT22;8760;52.248;20.952;2022-12-29T04:19:59;4.70;1.00
17284;DHT22;8760;52.248;20.952;2022-12-29T04:22:40;4.70;1.00
17284;DHT22;8760;52.248;20.952;2022-12-29T04:25:07;4.80;1.00
17284;DHT22;8760;52.248;20.952;2022-12-29T04:27:36;4.80;1.00
17284;DHT22;8760;52.248;20.952;2022-12-29T04:30:03;4.80;1.00
17284;DHT22;8760;52.248;20.952;2022-12-29T04:32:30;4.80;1.00
17284;DHT22;8760;52.248;20.952;2022-12-29T04:34:57;4.70;1.00
17284;DHT22;8760;52.248;20.952;2022-12-29T04:37:24;4.70;1.00
17284;DHT22;8760;52.248;20.952;2022-12-29T04:39:51;4.70;1.00
17284;DHT22;8760;52.248;20.952;2022-12-29T04:42:18;4.70;1.00
17284;DHT22;8760;52.248;20.952;2022-12-29T04:44:46;4.70;1.00
17284;DHT22;8760;52.248;20.952;2022-12-29T04:47:13;4.70;1.00
17284;DHT22;8760;52.248;20.952;2022-12-29T04:49:40;4.70;1.00
17284;DHT22;8760;52.248;20.952;2022-12-29T04:52:07;4.70;1.00
17284;DHT22;8760;52.248;20.952;2022-12-29T04:54:34;4.70;1.00
17284;DHT22;8760;52.248;20.952;2022-12-29T04:57:01;4.70;1.00
17284;DHT22;8760;52.248;20.952;2022-12-29T04:59:27;4.70;1.00
17284;DHT22;8760;52.248;20.952;2022-12-29T05:01:56;4.70;1.00
17284;DHT22;8760;52.248;20.952;2022-12-29T05:04:22;4.70;1.00
17284;DHT22;8760;52.248;20.952;2022-12-29T05:06:49;4.70;99.90
17284;DHT22;8760;52.248;20.952;2022-12-29T05:09:16;4.70;99.90
17284;DHT22;8760;52.248;20.952;2022-12-29T05:11:43;4.70;99.90
17284;DHT22;8760;52.248;20.952;2022-12-29T05:14:10;4.70;99.90
17284;DHT22;8760;52.248;20.952;2022-12-29T05:16:37;4.70;99.90
17284;DHT22;8760;52.248;20.952;2022-12-29T05:19:05;4.70;99.90
17284;DHT22;8760;52.248;20.952;2022-12-29T05:21:32;4.70;99.90
17284;DHT22;8760;52.248;20.952;2022-12-29T05:23:59;4.70;1.00
17284;DHT22;8760;52.248;20.952;2022-12-29T05:26:26;4.70;1.00
17284;DHT22;8760;52.248;20.952;2022-12-29T05:28:53;4.70;1.00
17284;DHT22;8760;52.248;20.952;2022-12-29T05:31:19;4.70;1.00
17284;DHT22;8760;52.248;20.952;2022-12-29T05:33:46;4.70;1.00
17284;DHT22;8760;52.248;20.952;2022-12-29T05:36:14;4.70;1.00
17284;DHT22;8760;52.248;20.952;2022-12-29T05:38:41;4.70;99.90
17284;DHT22;8760;52.248;20.952;2022-12-29T05:41:08;4.70;99.90
17284;DHT22;8760;52.248;20.952;2022-12-29T05:43:35;4.80;96.80
17284;DHT22;8760;52.248;20.952;2022-12-29T05:46:02;4.70;1.00
17284;DHT22;8760;52.248;20.952;2022-12-29T05:48:30;4.70;1.00
17284;DHT22;8760;52.248;20.952;2022-12-29T05:50:56;4.70;25.50
17284;DHT22;8760;52.248;20.952;2022-12-29T05:53:25;4.60;1.00
17284;DHT22;8760;52.248;20.952;2022-12-29T05:55:51;4.60;1.00
17284;DHT22;8760;52.248;20.952;2022-12-29T05:58:19;4.70;1.00
17284;DHT22;8760;52.248;20.952;2022-12-29T06:00:46;4.70;1.00
17284;DHT22;8760;52.248;20.952;2022-12-29T06:03:13;4.70;88.20
17284;DHT22;8760;52.248;20.952;2022-12-29T06:05:40;4.70;99.90
17284;DHT22;8760;52.248;20.952;2022-12-29T06:08:07;4.70;1.00
17284;DHT22;8760;52.248;20.952;2022-12-29T06:10:35;4.80;99.90
17284;DHT22;8760;52.248;20.952;2022-12-29T06:13:02;4.80;1.00
17284;DHT22;8760;52.248;20.952;2022-12-29T06:15:31;4.80;1.00
17284;DHT22;8760;52.248;20.952;2022-12-29T06:17:58;4.80;1.00
17284;DHT22;8760;52.248;20.952;2022-12-29T06:20:24;4.80;99.90
17284;DHT22;8760;52.248;20.952;2022-12-29T06:22:51;4.80;1.00
17284;DHT22;8760;52.248;20.952;2022-12-29T06:25:18;4.80;1.00
17284;DHT22;8760;52.248;20.952;2022-12-29T06:27:46;4.80;1.00
17284;DHT22;8760;52.248;20.952;2022-12-29T06:30:13;4.80;1.00
17284;DHT22;8760;52.248;20.952;2022-12-29T06:32:42;4.80;99.90
17284;DHT22;8760;52.248;20.952;2022-12-29T06:35:09;4.90;30.00
17284;DHT22;8760;52.248;20.952;2022-12-29T06:37:36;5.00;1.00
17284;DHT22;8760;52.248;20.952;2022-12-29T06:40:04;5.00;1.00
17284;DHT22;8760;52.248;20.952;2022-12-29T06:42:31;5.00;1.00
17284;DHT22;8760;52.248;20.952;2022-12-29T06:44:59;5.00;99.90
17284;DHT22;8760;52.248;20.952;2022-12-29T06:47:26;5.00;99.90
17284;DHT22;8760;52.248;20.952;2022-12-29T06:49:53;5.10;98.10
17284;DHT22;8760;52.248;20.952;2022-12-29T06:52:20;5.10;1.00
17284;DHT22;8760;52.248;20.952;2022-12-29T06:54:46;5.10;1.00
17284;DHT22;8760;52.248;20.952;2022-12-29T06:57:13;5.10;1.00
17284;DHT22;8760;52.248;20.952;2022-12-29T06:59:40;5.10;1.00
17284;DHT22;8760;52.248;20.952;2022-12-29T07:02:10;5.10;1.00
17284;DHT22;8760;52.248;20.952;2022-12-29T07:04:37;5.20;99.90
17284;DHT22;8760;52.248;20.952;2022-12-29T07:07:04;5.20;99.90
17284;DHT22;8760;52.248;20.952;2022-12-29T07:09:31;5.20;99.90
17284;DHT22;8760;52.248;20.952;2022-12-29T07:11:58;5.30;99.90
17284;DHT22;8760;52.248;20.952;2022-12-29T07:14:25;5.30;99.90
17284;DHT22;8760;52.248;20.952;2022-12-29T07:16:51;5.30;1.00
17284;DHT22;8760;52.248;20.952;2022-12-29T07:19:20;5.40;1.00
17284;DHT22;8760;52.248;20.952;2022-12-29T07:21:47;5.40;1.00
17284;DHT22;8760;52.248;20.952;2022-12-29T07:24:14;5.40;99.90
17284;DHT22;8760;52.248;20.952;2022-12-29T07:26:40;5.50;99.90
17284;DHT22;8760;52.248;20.952;2022-12-29T07:29:07;5.50;99.90
17284;DHT22;8760;52.248;20.952;2022-12-29T07:31:34;5.50;90.60
17284;DHT22;8760;52.248;20.952;2022-12-29T07:34:01;5.50;1.00
17284;DHT22;8760;52.248;20.952;2022-12-29T07:36:29;5.50;1.00
17284;DHT22;8760;52.248;20.952;2022-12-29T07:38:56;5.50;1.00
17284;DHT22;8760;52.248;20.952;2022-12-29T07:41:23;5.50;1.00
17284;DHT22;8760;52.248;20.952;2022-12-29T07:43:50;5.60;1.00
17284;DHT22;8760;52.248;20.952;2022-12-29T07:46:17;5.60;1.00
17284;DHT22;8760;52.248;20.952;2022-12-29T07:48:44;5.60;1.00
17284;DHT22;8760;52.248;20.952;2022-12-29T07:51:11;5.60;1.00
17284;DHT22;8760;52.248;20.952;2022-12-29T07:53:39;5.60;1.00
17284;DHT22;8760;52.248;20.952;2022-12-29T07:56:06;5.70;1.00
17284;DHT22;8760;52.248;20.952;2022-12-29T07:58:33;5.70;1.00
17284;DHT22;8760;52.248;20.952;2022-12-29T08:01:00;5.70;99.90
17284;DHT22;8760;52.248;20.952;2022-12-29T08:03:27;5.80;1.00
17284;DHT22;8760;52.248;20.952;2022-12-29T08:05:54;5.80;99.90
17284;DHT22;8760;52.248;20.952;2022-12-29T08:08:21;5.80;99.90
17284;DHT22;8760;52.248;20.952;2022-12-29T08:10:49;5.90;99.90
17284;DHT22;8760;52.248;20.952;2022-12-29T08:13:16;6.00;48.90
17284;DHT22;8760;52.248;20.952;2022-12-29T08:15:42;6.00;1.00
17284;DHT22;8760;52.248;20.952;2022-12-29T08:18:09;6.10;1.00
17284;DHT22;8760;52.248;20.952;2022-12-29T08:20:36;6.10;1.00
17284;DHT22;8760;52.248;20.952;2022-12-29T08:23:03;6.10;1.00
17284;DHT22;8760;52.248;20.952;2022-12-29T08:25:30;6.30;1.00
17284;DHT22;8760;52.248;20.952;2022-12-29T08:27:58;6.30;99.90
17284;DHT22;8760;52.248;20.952;2022-12-29T08:30:25;6.40;99.90
17284;DHT22;8760;52.248;20.952;2022-12-29T08:32:52;6.40;99.90
17284;DHT22;8760;52.248;20.952;2022-12-29T08:35:19;6.40;99.90
17284;DHT22;8760;52.248;20.952;2022-12-29T08:37:46;6.40;99.90
17284;DHT22;8760;52.248;20.952;2022-12-29T08:40:13;6.50;99.90
17284;DHT22;8760;52.248;20.952;2022-12-29T08:42:40;6.60;23.50
17284;DHT22;8760;52.248;20.952;2022-12-29T08:45:09;6.60;1.00
17284;DHT22;8760;52.248;20.952;2022-12-29T08:47:36;6.70;1.00
17284;DHT22;8760;52.248;20.952;2022-12-29T08:50:03;6.70;1.00
17284;DHT22;8760;52.248;20.952;2022-12-29T08:52:30;6.70;1.00
17284;DHT22;8760;52.248;20.952;2022-12-29T08:54:57;6.80;1.00
17284;DHT22;8760;52.248;20.952;2022-12-29T08:57:24;6.80;1.00
17284;DHT22;8760;52.248;20.952;2022-12-29T08:59:51;6.90;1.00
17284;DHT22;8760;52.248;20.952;2022-12-29T09:02:19;6.90;1.00
17284;DHT22;8760;52.248;20.952;2022-12-29T09:04:46;7.00;1.00
17284;DHT22;8760;52.248;20.952;2022-12-29T09:07:13;7.00;1.00
17284;DHT22;8760;52.248;20.952;2022-12-29T09:09:40;7.00;1.00
17284;DHT22;8760;52.248;20.952;2022-12-29T09:12:07;7.10;1.00
17284;DHT22;8760;52.248;20.952;2022-12-29T09:14:34;7.20;1.00
17284;DHT22;8760;52.248;20.952;2022-12-29T09:17:01;7.20;1.00
17284;DHT22;8760;52.248;20.952;2022-12-29T09:19:46;7.30;1.00
17284;DHT22;8760;52.248;20.952;2022-12-29T09:22:13;7.40;1.00
17284;DHT22;8760;52.248;20.952;2022-12-29T09:24:40;7.50;99.90
17284;DHT22;8760;52.248;20.952;2022-12-29T09:27:07;7.60;99.90
17284;DHT22;8760;52.248;20.952;2022-12-29T09:29:34;7.80;99.90
17284;DHT22;8760;52.248;20.952;2022-12-29T09:32:01;7.80;99.90
17284;DHT22;8760;52.248;20.952;2022-12-29T09:34:28;7.80;99.90
17284;DHT22;8760;52.248;20.952;2022-12-29T09:36:56;7.70;99.90
17284;DHT22;8760;52.248;20.952;2022-12-29T09:39:23;7.70;99.90
17284;DHT22;8760;52.248;20.952;2022-12-29T09:41:56;7.60;99.90
17284;DHT22;8760;52.248;20.952;2022-12-29T09:44:30;7.60;99.90
17284;DHT22;8760;52.248;20.952;2022-12-29T09:46:58;7.50;99.90
17284;DHT22;8760;52.248;20.952;2022-12-29T09:49:28;7.60;99.90
17284;DHT22;8760;52.248;20.952;2022-12-29T09:52:02;7.60;99.90
17284;DHT22;8760;52.248;20.952;2022-12-29T09:54:39;7.60;99.90
17284;DHT22;8760;52.248;20.952;2022-12-29T09:57:21;7.70;99.90
17284;DHT22;8760;52.248;20.952;2022-12-29T09:59:56;7.70;99.90
17284;DHT22;8760;52.248;20.952;2022-12-29T10:02:32;7.80;99.90
17284;DHT22;8760;52.248;20.952;2022-12-29T10:05:01;7.80;99.90
17284;DHT22;8760;52.248;20.952;2022-12-29T10:07:42;7.80;99.90
17284;DHT22;8760;52.248;20.952;2022-12-29T10:10:20;7.80;99.90
17284;DHT22;8760;52.248;20.952;2022-12-29T10:13:02;7.70;99.90
17284;DHT22;8760;52.248;20.952;2022-12-29T10:15:46;7.70;99.90
17284;DHT22;8760;52.248;20.952;2022-12-29T10:18:24;7.70;99.90
17284;DHT22;8760;52.248;20.952;2022-12-29T10:20:58;7.80;99.90
17284;DHT22;8760;52.248;20.952;2022-12-29T10:23:31;7.70;99.90
17284;DHT22;8760;52.248;20.952;2022-12-29T10:26:00;7.80;99.90
17284;DHT22;8760;52.248;20.952;2022-12-29T10:28:34;7.80;99.90
17284;DHT22;8760;52.248;20.952;2022-12-29T10:31:06;7.80;99.90
17284;DHT22;8760;52.248;20.952;2022-12-29T10:33:39;7.80;99.90
17284;DHT22;8760;52.248;20.952;2022-12-29T10:36:14;7.80;99.90
17284;DHT22;8760;52.248;20.952;2022-12-29T10:38:49;7.90;99.90
17284;DHT22;8760;52.248;20.952;2022-12-29T10:41:23;7.80;99.90
17284;DHT22;8760;52.248;20.952;2022-12-29T10:43:54;7.80;99.90
17284;DHT22;8760;52.248;20.952;2022-12-29T10:46:23;7.90;99.90
17284;DHT22;8760;52.248;20.952;2022-12-29T10:48:51;7.90;99.90
17284;DHT22;8760;52.248;20.952;2022-12-29T10:51:21;8.00;99.90
17284;DHT22;8760;52.248;20.952;2022-12-29T10:53:53;8.10;99.90
17284;DHT22;8760;52.248;20.952;2022-12-29T10:56:29;8.10;99.90
17284;DHT22;8760;52.248;20.952;2022-12-29T10:58:59;8.10;99.90
17284;DHT22;8760;52.248;20.952;2022-12-29T11:01:38;8.10;99.90
17284;DHT22;8760;52.248;20.952;2022-12-29T11:04:30;8.20;99.90
17284;DHT22;8760;52.248;20.952;2022-12-29T11:06:58;8.20;99.90
17284;DHT22;8760;52.248;20.952;2022-12-29T11:09:29;8.20;99.90
17284;DHT22;8760;52.248;20.952;2022-12-29T11:11:57;8.30;99.90
17284;DHT22;8760;52.248;20.952;2022-12-29T11:14:27;8.30;99.90
17284;DHT22;8760;52.248;20.952;2022-12-29T11:16:59;8.40;99.90
17284;DHT22;8760;52.248;20.952;2022-12-29T11:19:28;8.40;79.20
17284;DHT22;8760;52.248;20.952;2022-12-29T11:22:13;8.50;61.90
17284;DHT22;8760;52.248;20.952;2022-12-29T11:24:45;8.50;69.50
17284;DHT22;8760;52.248;20.952;2022-12-29T11:27:15;8.50;45.10
17284;DHT22;8760;52.248;20.952;2022-12-29T11:29:43;8.50;41.70
17284;DHT22;8760;52.248;20.952;2022-12-29T11:32:17;8.50;41.90
17284;DHT22;8760;52.248;20.952;2022-12-29T11:34:44;8.50;45.00
17284;DHT22;8760;52.248;20.952;2022-12-29T11:37:13;8.50;63.90
17284;DHT22;8760;52.248;20.952;2022-12-29T11:39:46;8.50;87.70
17284;DHT22;8760;52.248;20.952;2022-12-29T11:42:17;8.50;77.60
17284;DHT22;8760;52.248;20.952;2022-12-29T11:44:46;8.50;88.70
17284;DHT22;8760;52.248;20.952;2022-12-29T11:47:24;8.50;95.20
17284;DHT22;8760;52.248;20.952;2022-12-29T11:49:54;8.50;99.90
17284;DHT22;8760;52.248;20.952;2022-12-29T11:52:24;8.50;97.40
17284;DHT22;8760;52.248;20.952;2022-12-29T11:54:54;8.60;97.10
17284;DHT22;8760;52.248;20.952;2022-12-29T11:57:23;8.60;93.40
17284;DHT22;8760;52.248;20.952;2022-12-29T11:59:52;8.60;99.90
17284;DHT22;8760;52.248;20.952;2022-12-29T12:02:36;8.70;99.90
17284;DHT22;8760;52.248;20.952;2022-12-29T12:05:15;8.70;94.80
17284;DHT22;8760;52.248;20.952;2022-12-29T12:07:46;8.70;96.60
17284;DHT22;8760;52.248;20.952;2022-12-29T12:10:30;8.70;97.80
17284;DHT22;8760;52.248;20.952;2022-12-29T12:13:08;8.80;67.10
17284;DHT22;8760;52.248;20.952;2022-12-29T12:15:42;8.80;66.80
17284;DHT22;8760;52.248;20.952;2022-12-29T12:18:15;8.80;86.70
17284;DHT22;8760;52.248;20.952;2022-12-29T12:20:47;8.80;67.10
17284;DHT22;8760;52.248;20.952;2022-12-29T12:24:00;8.90;96.00
17284;DHT22;8760;52.248;20.952;2022-12-29T12:26:34;8.80;99.90
17284;DHT22;8760;52.248;20.952;2022-12-29T12:29:08;8.90;99.90
17284;DHT22;8760;52.248;20.952;2022-12-29T12:31:44;9.00;99.90
17284;DHT22;8760;52.248;20.952;2022-12-29T12:34:16;9.00;99.90
17284;DHT22;8760;52.248;20.952;2022-12-29T12:36:59;9.00;94.30
17284;DHT22;8760;52.248;20.952;2022-12-29T12:39:39;9.00;99.80
17284;DHT22;8760;52.248;20.952;2022-12-29T12:42:23;9.00;88.50
17284;DHT22;8760;52.248;20.952;2022-12-29T12:47:53;9.10;64.50
17284;DHT22;8760;52.248;20.952;2022-12-29T12:50:39;9.10;70.30
17284;DHT22;8760;52.248;20.952;2022-12-29T12:53:24;9.20;49.30
17284;DHT22;8760;52.248;20.952;2022-12-29T12:56:14;9.20;23.10
17284;DHT22;8760;52.248;20.952;2022-12-29T12:58:51;9.20;28.00
17284;DHT22;8760;52.248;20.952;2022-12-29T13:01:29;9.20;17.80
17284;DHT22;8760;52.248;20.952;2022-12-29T13:04:32;9.20;21.80
17284;DHT22;8760;52.248;20.952;2022-12-29T13:07:10;9.20;10.70
17284;DHT22;8760;52.248;20.952;2022-12-29T13:09:48;9.30;6.30
17284;DHT22;8760;52.248;20.952;2022-12-29T13:12:28;9.30;13.70
17284;DHT22;8760;52.248;20.952;2022-12-29T13:15:09;9.30;12.60
17284;DHT22;8760;52.248;20.952;2022-12-29T13:17:45;9.30;10.80
17284;DHT22;8760;52.248;20.952;2022-12-29T13:20:23;9.30;27.80
17284;DHT22;8760;52.248;20.952;2022-12-29T13:22:56;9.40;21.30
17284;DHT22;8760;52.248;20.952;2022-12-29T13:25:33;9.30;30.40
17284;DHT22;8760;52.248;20.952;2022-12-29T13:28:06;9.40;48.20
17284;DHT22;8760;52.248;20.952;2022-12-29T13:30:42;9.30;46.70
17284;DHT22;8760;52.248;20.952;2022-12-29T13:33:17;9.30;59.60
17284;DHT22;8760;52.248;20.952;2022-12-29T13:35:58;9.40;67.30
17284;DHT22;8760;52.248;20.952;2022-12-29T13:38:32;9.40;81.40
17284;DHT22;8760;52.248;20.952;2022-12-29T13:41:04;9.40;76.40
17284;DHT22;8760;52.248;20.952;2022-12-29T13:43:35;9.40;91.10
17284;DHT22;8760;52.248;20.952;2022-12-29T13:46:09;9.30;99.90
17284;DHT22;8760;52.248;20.952;2022-12-29T13:48:40;9.30;99.90
17284;DHT22;8760;52.248;20.952;2022-12-29T13:51:10;9.30;99.90
17284;DHT22;8760;52.248;20.952;2022-12-29T13:53:49;9.30;99.90
17284;DHT22;8760;52.248;20.952;2022-12-29T13:56:22;9.40;99.90
17284;DHT22;8760;52.248;20.952;2022-12-29T13:58:55;9.40;99.90
17284;DHT22;8760;52.248;20.952;2022-12-29T14:01:29;9.40;99.90
17284;DHT22;8760;52.248;20.952;2022-12-29T14:04:00;9.40;99.90
17284;DHT22;8760;52.248;20.952;2022-12-29T14:06:29;9.40;99.90
17284;DHT22;8760;52.248;20.952;2022-12-29T14:08:58;9.40;99.90
17284;DHT22;8760;52.248;20.952;2022-12-29T14:11:31;9.40;99.90
17284;DHT22;8760;52.248;20.952;2022-12-29T14:13:59;9.40;97.40
17284;DHT22;8760;52.248;20.952;2022-12-29T14:16:33;9.40;99.90
17284;DHT22;8760;52.248;20.952;2022-12-29T14:19:09;9.40;77.50
17284;DHT22;8760;52.248;20.952;2022-12-29T14:21:37;9.40;74.90
17284;DHT22;8760;52.248;20.952;2022-12-29T14:27:44;9.40;54.70
17284;DHT22;8760;52.248;20.952;2022-12-29T14:30:45;9.40;59.50
17284;DHT22;8760;52.248;20.952;2022-12-29T14:33:15;9.40;78.20
17284;DHT22;8760;52.248;20.952;2022-12-29T14:35:43;9.30;92.40
17284;DHT22;8760;52.248;20.952;2022-12-29T14:38:39;9.40;93.10
17284;DHT22;8760;52.248;20.952;2022-12-29T14:41:29;9.40;90.70
17284;DHT22;8760;52.248;20.952;2022-12-29T14:44:02;9.40;95.60
17284;DHT22;8760;52.248;20.952;2022-12-29T14:46:49;9.30;99.90
17284;DHT22;8760;52.248;20.952;2022-12-29T14:49:23;9.40;92.90
17284;DHT22;8760;52.248;20.952;2022-12-29T14:51:52;9.40;71.40
17284;DHT22;8760;52.248;20.952;2022-12-29T14:54:46;9.40;63.50
17284;DHT22;8760;52.248;20.952;2022-12-29T14:57:21;9.50;89.20
17284;DHT22;8760;52.248;20.952;2022-12-29T14:59:53;9.50;83.90
17284;DHT22;8760;52.248;20.952;2022-12-29T15:02:23;9.40;99.90
17284;DHT22;8760;52.248;20.952;2022-12-29T15:04:54;9.40;99.90
17284;DHT22;8760;52.248;20.952;2022-12-29T15:07:27;9.40;99.90
17284;DHT22;8760;52.248;20.952;2022-12-29T15:09:59;9.40;99.90
17284;DHT22;8760;52.248;20.952;2022-12-29T15:12:35;9.30;99.90
17284;DHT22;8760;52.248;20.952;2022-12-29T15:15:17;9.40;99.90
17284;DHT22;8760;52.248;20.952;2022-12-29T15:17:45;9.40;99.90
17284;DHT22;8760;52.248;20.952;2022-12-29T15:20:22;9.30;99.90
17284;DHT22;8760;52.248;20.952;2022-12-29T15:22:53;9.40;99.90
17284;DHT22;8760;52.248;20.952;2022-12-29T15:25:21;9.30;99.90
17284;DHT22;8760;52.248;20.952;2022-12-29T15:27:50;9.30;99.90
17284;DHT22;8760;52.248;20.952;2022-12-29T15:30:18;9.30;99.90
17284;DHT22;8760;52.248;20.952;2022-12-29T15:32:46;9.30;99.90
17284;DHT22;8760;52.248;20.952;2022-12-29T15:35:27;9.30;99.90
17284;DHT22;8760;52.248;20.952;2022-12-29T15:37:55;9.30;99.90
17284;DHT22;8760;52.248;20.952;2022-12-29T15:40:24;9.20;99.90
17284;DHT22;8760;52.248;20.952;2022-12-29T15:45:42;9.20;99.90
17284;DHT22;8760;52.248;20.952;2022-12-29T15:48:14;9.10;99.90
17284;DHT22;8760;52.248;20.952;2022-12-29T15:50:45;9.20;99.90
17284;DHT22;8760;52.248;20.952;2022-12-29T15:53:18;9.20;99.90
17284;DHT22;8760;52.248;20.952;2022-12-29T15:55:46;9.10;99.90
17284;DHT22;8760;52.248;20.952;2022-12-29T15:58:20;9.10;99.90
17284;DHT22;8760;52.248;20.952;2022-12-29T16:00:49;9.00;99.90
17284;DHT22;8760;52.248;20.952;2022-12-29T16:03:18;9.00;99.90
17284;DHT22;8760;52.248;20.952;2022-12-29T16:05:52;9.00;99.90
17284;DHT22;8760;52.248;20.952;2022-12-29T16:08:31;9.00;99.90
17284;DHT22;8760;52.248;20.952;2022-12-29T16:11:00;9.00;1.00
17284;DHT22;8760;52.248;20.952;2022-12-29T16:13:31;9.00;1.00
17284;DHT22;8760;52.248;20.952;2022-12-29T16:16:01;8.90;1.00
17284;DHT22;8760;52.248;20.952;2022-12-29T16:18:32;8.80;1.00
17284;DHT22;8760;52.248;20.952;2022-12-29T16:21:02;8.90;1.00
17284;DHT22;8760;52.248;20.952;2022-12-29T16:23:31;8.90;1.00
17284;DHT22;8760;52.248;20.952;2022-12-29T16:25:59;8.90;1.00
17284;DHT22;8760;52.248;20.952;2022-12-29T16:28:35;8.90;1.00
17284;DHT22;8760;52.248;20.952;2022-12-29T16:31:04;8.80;1.00
17284;DHT22;8760;52.248;20.952;2022-12-29T16:33:46;8.80;1.00
17284;DHT22;8760;52.248;20.952;2022-12-29T16:36:51;8.80;1.00